Time;durP1;ratioP1;P1;durP2;ratioP2;P2;SDS_P1;SDS_P2;PMS_P1;PMS_P2;Temp;Humidity;BMP_temperature;BMP_pressure;BME280_temperature;BME280_humidity;BME280_pressure;Samples;Min_cycle;Max_cycle;Signal;HPM_P1;HPM_P2
2023/12/18 00:02:04;;;;;;;37.65;16.75;;;8.30;99.90;;;;;;5025314;28;20029;-75
2023/12/18 00:04:30;;;;;;;37.83;15.68;;;8.30;99.90;;;;;;5027120;28;20025;-75
2023/12/18 00:06:55;;;;;;;45.38;16.35;;;8.30;99.90;;;;;;5022590;28;20110;-75
2023/12/18 00:09:21;;;;;;;36.85;16.98;;;8.30;99.90;;;;;;5027103;28;20018;-75
2023/12/18 00:11:46;;;;;;;36.67;16.33;;;8.30;99.90;;;;;;5024487;28;20447;-75
2023/12/18 00:14:12;;;;;;;44.13;16.92;;;8.30;99.90;;;;;;5025949;28;20582;-75
2023/12/18 00:16:38;;;;;;;40.08;17.35;;;8.30;99.90;;;;;;5026825;28;20046;-75
2023/12/18 00:19:04;;;;;;;36.35;18.15;;;8.30;99.90;;;;;;5018859;28;20405;-75
2023/12/18 00:21:30;;;;;;;39.00;16.98;;;8.30;99.90;;;;;;5026943;28;20025;-75
2023/12/18 00:23:56;;;;;;;39.60;18.10;;;8.20;99.90;;;;;;5022746;28;20033;-75
2023/12/18 00:26:23;;;;;;;37.80;18.25;;;8.20;99.90;;;;;;5026851;28;20548;-74
2023/12/18 00:28:48;;;;;;;40.05;17.08;;;8.20;99.90;;;;;;5019927;28;20014;-74
2023/12/18 00:31:14;;;;;;;38.85;16.73;;;8.20;99.90;;;;;;5019734;28;20021;-75
2023/12/18 00:33:39;;;;;;;35.58;16.45;;;8.20;99.90;;;;;;5026348;28;20025;-75
2023/12/18 00:36:05;;;;;;;42.75;18.38;;;8.20;99.90;;;;;;5026440;28;20025;-75
2023/12/18 00:38:31;;;;;;;31.30;16.80;;;8.20;99.90;;;;;;5027136;28;20048;-74
2023/12/18 00:40:57;;;;;;;36.83;16.90;;;8.20;99.90;;;;;;5015663;28;20509;-75
2023/12/18 00:43:22;;;;;;;37.60;15.80;;;8.20;99.90;;;;;;5017401;28;20014;-74
2023/12/18 00:45:48;;;;;;;34.40;16.15;;;8.20;99.90;;;;;;5023074;28;20516;-75
2023/12/18 00:48:14;;;;;;;39.42;16.60;;;8.20;99.90;;;;;;5026971;28;20078;-75
2023/12/18 00:50:40;;;;;;;38.70;17.00;;;8.20;99.90;;;;;;5025688;28;20014;-75
2023/12/18 00:53:05;;;;;;;38.00;16.88;;;8.20;99.90;;;;;;5026746;28;20100;-75
2023/12/18 00:55:31;;;;;;;40.95;17.23;;;8.20;99.90;;;;;;5025913;28;20525;-75
2023/12/18 00:57:57;;;;;;;33.15;16.48;;;8.20;99.90;;;;;;5021617;28;20066;-75
2023/12/18 01:00:22;;;;;;;36.47;17.08;;;8.20;99.90;;;;;;5007861;28;20053;-75
2023/12/18 01:02:48;;;;;;;39.30;16.35;;;8.30;99.90;;;;;;5014733;28;20489;-75
2023/12/18 01:05:14;;;;;;;35.95;15.85;;;8.20;99.90;;;;;;5025865;28;20113;-75
2023/12/18 01:07:41;;;;;;;42.63;17.63;;;8.30;99.90;;;;;;5026037;28;20033;-75
2023/12/18 01:10:07;;;;;;;36.20;16.85;;;8.20;99.90;;;;;;5023333;28;20009;-75
2023/12/18 01:12:33;;;;;;;34.65;16.13;;;8.20;99.90;;;;;;5017072;28;20026;-75
2023/12/18 01:14:58;;;;;;;39.95;18.05;;;8.20;99.90;;;;;;5025951;28;20046;-75
2023/12/18 01:17:24;;;;;;;38.03;17.33;;;8.20;99.90;;;;;;5023958;28;20069;-75
2023/12/18 01:19:50;;;;;;;34.22;17.25;;;8.20;99.90;;;;;;5021003;28;20025;-75
2023/12/18 01:22:15;;;;;;;36.05;17.70;;;8.20;99.90;;;;;;5020492;28;20021;-75
2023/12/18 01:24:41;;;;;;;33.97;17.30;;;8.20;99.90;;;;;;5027154;28;20386;-74
2023/12/18 01:27:06;;;;;;;35.20;17.55;;;8.20;99.90;;;;;;5021153;28;20026;-75
2023/12/18 01:29:32;;;;;;;35.60;17.88;;;8.20;99.90;;;;;;5029390;28;20049;-75
2023/12/18 01:31:58;;;;;;;48.42;18.52;;;8.20;99.90;;;;;;5019926;28;20109;-75
2023/12/18 01:34:23;;;;;;;38.22;18.63;;;8.20;99.90;;;;;;5029235;28;20014;-75
2023/12/18 01:36:49;;;;;;;42.88;18.35;;;8.20;99.90;;;;;;5029933;27;20129;-75
2023/12/18 01:39:14;;;;;;;42.70;18.20;;;8.20;99.90;;;;;;5024914;28;20366;-75
2023/12/18 01:41:40;;;;;;;38.40;18.33;;;8.20;99.90;;;;;;5010635;28;20033;-75
2023/12/18 01:44:06;;;;;;;37.47;19.45;;;8.30;99.90;;;;;;5026804;27;20021;-75
2023/12/18 01:46:34;;;;;;;37.15;19.50;;;8.30;99.90;;;;;;5029032;28;20021;-75
2023/12/18 01:49:01;;;;;;;37.75;18.92;;;8.20;99.90;;;;;;5028445;28;20033;-75
2023/12/18 01:51:27;;;;;;;34.95;18.75;;;8.20;99.90;;;;;;5020137;28;20022;-74
2023/12/18 01:53:56;;;;;;;40.53;20.02;;;8.20;99.90;;;;;;5025024;28;20014;-75
2023/12/18 01:56:25;;;;;;;41.05;19.02;;;8.20;99.90;;;;;;5026901;28;20030;-75
2023/12/18 01:58:53;;;;;;;37.60;19.33;;;8.20;99.90;;;;;;5025986;28;20038;-75
2023/12/18 02:01:19;;;;;;;45.25;20.35;;;8.20;99.90;;;;;;5019198;28;20534;-75
2023/12/18 02:03:45;;;;;;;36.88;18.90;;;8.10;99.90;;;;;;5029373;28;20025;-74
2023/12/18 02:06:13;;;;;;;44.58;18.95;;;8.10;99.90;;;;;;5027963;28;20034;-75
2023/12/18 02:08:39;;;;;;;39.25;19.23;;;8.10;99.90;;;;;;5021276;28;20033;-75
2023/12/18 02:11:05;;;;;;;44.55;19.65;;;8.10;99.90;;;;;;5015082;28;20014;-75
2023/12/18 02:13:31;;;;;;;35.92;18.45;;;8.10;99.90;;;;;;5019203;28;20466;-75
2023/12/18 02:15:57;;;;;;;44.60;20.50;;;8.10;99.90;;;;;;5027826;28;20110;-75
2023/12/18 02:18:23;;;;;;;40.15;20.40;;;8.10;99.90;;;;;;5028547;28;20118;-75
2023/12/18 02:20:49;;;;;;;36.47;18.65;;;8.10;99.90;;;;;;5027596;28;20022;-74
2023/12/18 02:23:15;;;;;;;45.35;20.38;;;8.10;99.90;;;;;;5025788;28;20029;-75
2023/12/18 02:25:40;;;;;;;35.47;19.17;;;8.10;99.90;;;;;;5026041;28;20030;-75
2023/12/18 02:28:10;;;;;;;44.88;20.02;;;8.10;99.90;;;;;;5026784;28;20021;-74
2023/12/18 02:30:36;;;;;;;42.22;19.83;;;8.10;99.90;;;;;;5027237;28;20485;-75
2023/12/18 02:33:01;;;;;;;41.40;20.70;;;8.10;99.90;;;;;;5028636;28;20029;-74
2023/12/18 02:35:27;;;;;;;39.13;19.00;;;8.10;99.90;;;;;;5022441;28;20044;-75
2023/12/18 02:37:53;;;;;;;38.30;19.40;;;8.10;99.90;;;;;;5026213;28;20145;-75
2023/12/18 02:40:18;;;;;;;41.28;19.58;;;8.10;99.90;;;;;;5023525;28;20021;-75
2023/12/18 02:42:44;;;;;;;44.35;19.88;;;8.10;99.90;;;;;;5027967;28;20446;-75
2023/12/18 02:45:10;;;;;;;44.22;19.80;;;8.10;99.90;;;;;;5020808;28;20033;-75
2023/12/18 02:47:36;;;;;;;44.42;19.85;;;8.10;99.90;;;;;;5017940;28;20032;-75
2023/12/18 02:50:01;;;;;;;42.70;19.17;;;8.10;99.90;;;;;;5028239;28;20025;-75
2023/12/18 02:52:27;;;;;;;38.35;19.60;;;8.10;99.90;;;;;;5028340;28;20036;-75
2023/12/18 02:54:53;;;;;;;42.30;20.13;;;8.10;99.90;;;;;;5028197;28;20021;-75
2023/12/18 02:57:18;;;;;;;39.78;19.35;;;8.10;99.90;;;;;;5015944;28;20056;-75
2023/12/18 02:59:44;;;;;;;42.58;20.55;;;8.10;99.90;;;;;;5027688;27;20044;-75
2023/12/18 03:02:09;;;;;;;42.28;19.00;;;8.10;99.90;;;;;;5027816;28;20372;-75
2023/12/18 03:04:41;;;;;;;35.03;19.30;;;8.10;99.90;;;;;;5028532;28;20033;-75
2023/12/18 03:07:10;;;;;;;38.70;19.90;;;8.10;99.90;;;;;;5027740;28;20037;-74
2023/12/18 03:09:36;;;;;;;40.38;19.10;;;8.10;99.90;;;;;;5018404;28;20449;-74
2023/12/18 03:12:02;;;;;;;45.92;20.55;;;8.10;99.90;;;;;;5018754;28;20033;-75
2023/12/18 03:14:27;;;;;;;35.17;19.10;;;8.10;99.90;;;;;;5024832;28;20029;-75
2023/12/18 03:16:53;;;;;;;39.92;19.50;;;8.10;99.90;;;;;;5026542;28;20091;-75
2023/12/18 03:19:19;;;;;;;39.80;19.70;;;8.10;99.90;;;;;;5026369;28;20049;-75
2023/12/18 03:21:48;;;;;;;43.42;19.75;;;8.10;99.90;;;;;;5095122;28;20074;-75
2023/12/18 03:24:14;;;;;;;40.80;19.23;;;8.10;99.90;;;;;;5024500;28;20482;-75
2023/12/18 03:26:40;;;;;;;37.13;20.02;;;8.10;99.90;;;;;;5027726;28;20024;-75
2023/12/18 03:29:06;;;;;;;38.25;19.73;;;8.10;99.90;;;;;;5027516;28;20469;-75
2023/12/18 03:31:31;;;;;;;41.08;19.25;;;8.10;99.90;;;;;;5019560;28;20022;-74
2023/12/18 03:33:57;;;;;;;43.85;19.73;;;8.10;99.90;;;;;;5027657;28;20504;-75
2023/12/18 03:36:23;;;;;;;40.42;19.77;;;8.10;99.90;;;;;;5016283;28;20047;-75
2023/12/18 03:38:48;;;;;;;42.10;19.83;;;8.10;99.90;;;;;;5026885;28;20021;-74
2023/12/18 03:41:14;;;;;;;43.97;20.60;;;8.10;99.90;;;;;;5092439;28;20083;-74
2023/12/18 03:43:39;;;;;;;38.55;18.67;;;8.10;99.90;;;;;;5024260;28;20360;-74
2023/12/18 03:46:06;;;;;;;40.13;18.88;;;8.10;99.90;;;;;;5027567;28;20053;-75
2023/12/18 03:48:32;;;;;;;35.85;19.10;;;8.10;99.90;;;;;;5021245;28;20466;-75
2023/12/18 03:50:57;;;;;;;39.75;18.45;;;8.10;99.90;;;;;;5017490;28;20033;-75
2023/12/18 03:53:23;;;;;;;39.17;19.60;;;8.10;99.90;;;;;;5023210;28;20017;-75
2023/12/18 03:55:49;;;;;;;39.45;19.08;;;8.20;99.90;;;;;;5022650;28;20078;-75
2023/12/18 03:58:15;;;;;;;42.15;19.85;;;8.10;99.90;;;;;;5021853;28;20015;-75
2023/12/18 04:00:41;;;;;;;41.60;19.20;;;8.10;99.90;;;;;;5027361;28;20057;-75
2023/12/18 04:03:07;;;;;;;36.72;18.25;;;8.20;99.90;;;;;;5026854;28;20512;-75
2023/12/18 04:05:33;;;;;;;38.85;17.23;;;8.20;99.90;;;;;;5014169;28;20037;-75
2023/12/18 04:07:58;;;;;;;42.63;18.90;;;8.20;99.90;;;;;;5022768;28;20045;-75
2023/12/18 04:10:24;;;;;;;44.28;18.15;;;8.20;99.90;;;;;;5026458;27;20066;-75
2023/12/18 04:12:50;;;;;;;38.63;18.42;;;8.20;99.90;;;;;;5026904;28;20024;-75
2023/12/18 04:15:16;;;;;;;39.47;18.80;;;8.20;99.90;;;;;;5026223;28;20102;-75
2023/12/18 04:17:41;;;;;;;38.33;18.15;;;8.20;99.90;;;;;;5025686;28;20457;-75
2023/12/18 04:20:08;;;;;;;43.13;18.50;;;8.20;99.90;;;;;;5026104;28;20042;-74
2023/12/18 04:22:34;;;;;;;36.72;18.65;;;8.20;99.90;;;;;;5027167;28;20032;-75
2023/12/18 04:24:59;;;;;;;40.17;17.77;;;8.20;99.90;;;;;;5094285;28;20022;-75
2023/12/18 04:27:25;;;;;;;41.28;18.70;;;8.20;99.90;;;;;;5023448;28;20468;-75
2023/12/18 04:29:51;;;;;;;43.58;18.52;;;8.20;99.90;;;;;;5022058;28;20462;-74
2023/12/18 04:32:16;;;;;;;41.00;17.70;;;8.20;99.90;;;;;;5026690;28;20508;-75
2023/12/18 04:34:43;;;;;;;38.60;18.25;;;8.30;99.90;;;;;;5026659;28;20435;-75
2023/12/18 04:37:09;;;;;;;44.17;17.95;;;8.30;99.90;;;;;;5025084;28;20030;-75
2023/12/18 04:39:35;;;;;;;42.92;18.33;;;8.30;99.90;;;;;;5027201;28;20022;-75
2023/12/18 04:42:00;;;;;;;35.95;18.20;;;8.30;99.90;;;;;;5023475;28;20078;-75
2023/12/18 04:44:26;;;;;;;38.25;17.55;;;8.30;99.90;;;;;;5024448;28;20025;-75
2023/12/18 04:46:51;;;;;;;39.67;17.77;;;8.30;99.90;;;;;;5014313;28;20096;-75
2023/12/18 04:49:17;;;;;;;40.13;18.30;;;8.30;99.90;;;;;;5026761;28;20013;-75
2023/12/18 04:51:43;;;;;;;39.05;18.00;;;8.30;99.90;;;;;;5014459;28;20485;-75
2023/12/18 04:54:09;;;;;;;37.63;18.45;;;8.30;99.90;;;;;;5024806;28;20017;-75
2023/12/18 04:56:35;;;;;;;43.88;18.98;;;8.30;99.90;;;;;;5026420;28;20030;-75
2023/12/18 04:59:00;;;;;;;43.35;17.73;;;8.30;99.90;;;;;;5018793;28;20033;-75
2023/12/18 05:01:26;;;;;;;38.67;19.35;;;8.30;99.90;;;;;;5029584;28;20101;-75
2023/12/18 05:03:51;;;;;;;39.55;17.55;;;8.30;99.90;;;;;;5017703;28;20029;-75
2023/12/18 05:06:19;;;;;;;37.40;18.98;;;8.30;99.90;;;;;;5029738;28;20100;-75
2023/12/18 05:08:45;;;;;;;38.90;18.08;;;8.40;99.90;;;;;;5030149;28;20340;-74
2023/12/18 05:11:10;;;;;;;43.55;19.48;;;8.30;99.90;;;;;;5025997;28;20046;-75
2023/12/18 05:13:36;;;;;;;41.10;18.67;;;8.30;99.90;;;;;;5029854;28;20057;-75
2023/12/18 05:16:01;;;;;;;36.78;18.30;;;8.30;99.90;;;;;;5029181;28;20056;-75
2023/12/18 05:18:27;;;;;;;43.30;20.42;;;8.30;99.90;;;;;;5024185;28;20071;-75
2023/12/18 05:20:57;;;;;;;42.90;20.15;;;8.30;99.90;;;;;;5027447;28;20100;-74
2023/12/18 05:23:22;;;;;;;39.25;18.85;;;8.30;99.90;;;;;;5016631;28;20018;-75
2023/12/18 05:25:48;;;;;;;43.38;19.25;;;8.30;99.90;;;;;;5028466;28;20025;-74
2023/12/18 05:28:13;;;;;;;36.50;19.20;;;8.30;99.90;;;;;;5028936;28;20613;-74
2023/12/18 05:30:39;;;;;;;40.38;18.55;;;8.30;99.90;;;;;;5021577;28;20021;-75
2023/12/18 05:33:04;;;;;;;38.70;19.05;;;8.30;99.90;;;;;;5024779;28;20298;-75
2023/12/18 05:35:30;;;;;;;35.83;19.33;;;8.30;99.90;;;;;;5018897;27;20034;-74
2023/12/18 05:37:55;;;;;;;42.28;20.17;;;8.30;99.90;;;;;;5014695;28;20025;-74
2023/12/18 05:40:21;;;;;;;34.75;18.75;;;8.30;99.90;;;;;;5024632;28;20449;-75
2023/12/18 05:42:47;;;;;;;40.85;18.80;;;8.30;99.90;;;;;;5027421;28;20025;-75
2023/12/18 05:45:12;;;;;;;39.00;19.15;;;8.30;99.90;;;;;;5027420;28;20053;-75
2023/12/18 05:47:38;;;;;;;43.28;19.77;;;8.30;99.90;;;;;;5100938;28;20484;-75
2023/12/18 05:50:04;;;;;;;37.55;18.52;;;8.30;99.90;;;;;;5021963;28;20014;-75
2023/12/18 05:52:29;;;;;;;37.83;18.90;;;8.30;99.90;;;;;;5029181;28;20025;-75
2023/12/18 05:54:55;;;;;;;40.35;20.75;;;8.40;99.90;;;;;;5023869;28;20534;-75
2023/12/18 05:57:20;;;;;;;36.13;19.65;;;8.40;99.90;;;;;;5028035;28;20113;-75
2023/12/18 05:59:46;;;;;;;42.35;19.92;;;8.30;99.90;;;;;;5028947;28;20362;-74
2023/12/18 06:02:11;;;;;;;37.58;19.25;;;8.30;99.90;;;;;;5025807;28;20033;-75
2023/12/18 06:04:41;;;;;;;39.15;19.35;;;8.40;99.90;;;;;;5019438;28;20097;-75
2023/12/18 06:07:07;;;;;;;39.45;20.15;;;8.40;99.90;;;;;;5024785;28;20033;-73
2023/12/18 06:09:33;;;;;;;38.17;19.25;;;8.40;99.90;;;;;;5024945;28;20032;-73
2023/12/18 06:11:58;;;;;;;43.15;20.17;;;8.40;99.90;;;;;;5025188;28;20511;-73
2023/12/18 06:14:24;;;;;;;40.25;19.83;;;8.30;99.90;;;;;;5026868;28;20066;-73
2023/12/18 06:16:49;;;;;;;39.33;20.38;;;8.40;99.90;;;;;;5026346;28;20109;-73
2023/12/18 06:19:15;;;;;;;42.95;20.20;;;8.40;99.90;;;;;;5018669;28;20034;-73
2023/12/18 06:21:41;;;;;;;36.80;20.75;;;8.40;99.90;;;;;;5028785;28;20432;-74
2023/12/18 06:24:07;;;;;;;39.75;20.05;;;8.40;99.90;;;;;;5029119;28;20077;-73
2023/12/18 06:26:32;;;;;;;43.75;20.85;;;8.40;99.90;;;;;;5027006;28;20314;-73
2023/12/18 06:28:58;;;;;;;36.60;20.55;;;8.30;99.90;;;;;;5023747;28;20033;-73
2023/12/18 06:31:23;;;;;;;46.03;20.20;;;8.30;99.90;;;;;;5025767;28;20055;-72
2023/12/18 06:33:50;;;;;;;37.50;20.08;;;8.30;99.90;;;;;;5019255;28;20033;-73
2023/12/18 06:36:20;;;;;;;43.63;20.60;;;8.30;99.90;;;;;;5022699;28;20029;-73
2023/12/18 06:38:46;;;;;;;43.28;20.23;;;8.30;99.90;;;;;;5026669;28;20056;-73
2023/12/18 06:41:12;;;;;;;38.58;19.90;;;8.30;99.90;;;;;;5042440;27;20683;-73
2023/12/18 06:43:39;;;;;;;38.00;20.55;;;8.30;99.90;;;;;;5015561;28;20025;-73
2023/12/18 06:46:05;;;;;;;34.97;20.05;;;8.30;99.90;;;;;;5027086;28;20029;-73
2023/12/18 06:48:35;;;;;;;42.00;20.15;;;8.30;99.90;;;;;;5025053;28;20508;-73
2023/12/18 06:51:00;;;;;;;42.45;20.58;;;8.30;99.90;;;;;;5058005;27;20021;-73
2023/12/18 06:53:26;;;;;;;43.10;21.00;;;8.30;99.90;;;;;;5026904;28;20094;-73
2023/12/18 06:55:52;;;;;;;40.45;20.17;;;8.30;99.90;;;;;;5026221;28;20034;-73
2023/12/18 06:58:17;;;;;;;40.95;20.00;;;8.30;99.90;;;;;;5096446;27;20026;-73
2023/12/18 07:00:43;;;;;;;46.50;19.88;;;8.30;99.90;;;;;;5029385;27;20040;-73
2023/12/18 07:03:09;;;;;;;39.95;20.17;;;8.30;99.90;;;;;;5023224;28;20021;-73
2023/12/18 07:05:35;;;;;;;40.17;19.75;;;8.30;99.90;;;;;;5026333;28;20368;-73
2023/12/18 07:08:01;;;;;;;45.58;19.48;;;8.30;99.90;;;;;;5020268;28;20025;-73
2023/12/18 07:10:26;;;;;;;42.90;21.65;;;8.30;99.90;;;;;;5015308;28;20038;-73
2023/12/18 07:12:52;;;;;;;44.97;20.35;;;8.30;99.90;;;;;;5064029;27;20057;-73
2023/12/18 07:15:18;;;;;;;42.45;20.30;;;8.30;99.90;;;;;;5028505;27;20423;-73
2023/12/18 07:17:43;;;;;;;45.00;20.27;;;8.30;99.90;;;;;;5043399;27;20069;-73
2023/12/18 07:20:11;;;;;;;37.50;20.23;;;8.40;99.90;;;;;;5014921;27;20126;-73
2023/12/18 07:22:39;;;;;;;46.92;19.60;;;8.40;99.90;;;;;;5014459;28;20026;-73
2023/12/18 07:25:05;;;;;;;37.78;20.13;;;8.40;99.90;;;;;;5019500;27;20061;-72
2023/12/18 07:27:30;;;;;;;37.97;19.75;;;8.40;99.90;;;;;;5016060;27;20450;-73
2023/12/18 07:29:56;;;;;;;42.03;20.70;;;8.40;99.90;;;;;;5027431;27;20042;-73
2023/12/18 07:32:22;;;;;;;40.90;20.20;;;8.40;99.90;;;;;;5021929;27;20097;-73
2023/12/18 07:34:47;;;;;;;49.13;21.50;;;8.40;99.90;;;;;;5023937;28;20260;-73
2023/12/18 07:37:13;;;;;;;43.63;20.55;;;8.50;99.90;;;;;;5024720;28;20026;-73
2023/12/18 07:39:39;;;;;;;37.78;20.20;;;8.50;99.90;;;;;;5013321;28;20397;-73
2023/12/18 07:42:04;;;;;;;39.95;19.25;;;8.50;99.90;;;;;;5015344;28;20518;-73
2023/12/18 07:44:30;;;;;;;43.38;19.25;;;8.50;99.90;;;;;;5010134;28;20470;-73
2023/12/18 07:46:56;;;;;;;44.55;20.25;;;8.50;99.90;;;;;;5011610;28;20026;-72
2023/12/18 07:49:22;;;;;;;34.50;19.73;;;8.50;99.90;;;;;;5018292;28;20022;-72
2023/12/18 07:51:48;;;;;;;45.63;19.52;;;8.50;99.90;;;;;;5023286;28;20026;-73
2023/12/18 07:54:14;;;;;;;44.53;20.55;;;8.50;99.90;;;;;;5025467;28;20017;-72
2023/12/18 07:56:40;;;;;;;45.78;19.48;;;8.50;99.90;;;;;;5021055;28;20064;-73
2023/12/18 07:59:07;;;;;;;44.65;19.90;;;8.50;99.90;;;;;;5079977;28;20057;-75
2023/12/18 08:01:33;;;;;;;42.08;19.42;;;8.50;99.90;;;;;;5083996;28;20038;-73
2023/12/18 08:03:59;;;;;;;39.88;20.70;;;8.50;99.90;;;;;;5021824;28;20362;-73
2023/12/18 08:06:25;;;;;;;39.60;19.50;;;8.50;99.90;;;;;;5017967;28;20022;-73
2023/12/18 08:08:50;;;;;;;36.90;18.35;;;8.50;99.90;;;;;;5015546;28;20492;-73
2023/12/18 08:11:16;;;;;;;41.83;18.75;;;8.60;99.90;;;;;;5012999;28;20078;-73
2023/12/18 08:13:42;;;;;;;34.50;18.13;;;8.50;99.90;;;;;;5018623;28;20029;-75
2023/12/18 08:16:09;;;;;;;31.17;18.08;;;8.60;99.90;;;;;;5022942;28;20054;-73
2023/12/18 08:18:35;;;;;;;37.30;19.63;;;8.60;99.90;;;;;;5025604;28;20021;-73
2023/12/18 08:21:00;;;;;;;40.70;19.08;;;8.60;99.90;;;;;;5023761;28;20071;-73
2023/12/18 08:23:26;;;;;;;37.08;18.17;;;8.60;99.90;;;;;;5023995;28;20014;-73
2023/12/18 08:25:52;;;;;;;35.13;19.13;;;8.60;99.90;;;;;;5028152;28;20321;-73
2023/12/18 08:28:18;;;;;;;44.25;19.55;;;8.60;99.90;;;;;;5026179;28;20117;-73
2023/12/18 08:30:44;;;;;;;41.20;19.65;;;8.60;99.90;;;;;;5020689;28;20100;-73
2023/12/18 08:33:10;;;;;;;37.60;20.35;;;8.60;99.90;;;;;;5022796;28;20079;-73
2023/12/18 08:35:35;;;;;;;40.60;18.92;;;8.60;99.90;;;;;;5019107;28;20447;-73
2023/12/18 08:38:01;;;;;;;38.25;19.38;;;8.60;99.90;;;;;;5015641;28;20029;-73
2023/12/18 08:40:27;;;;;;;41.88;19.42;;;8.60;99.90;;;;;;5016518;28;20094;-73
2023/12/18 08:42:53;;;;;;;39.40;20.42;;;8.50;99.90;;;;;;5012941;28;20016;-73
2023/12/18 08:45:18;;;;;;;36.33;20.00;;;8.50;99.90;;;;;;5012907;28;20026;-73
2023/12/18 08:47:44;;;;;;;41.38;20.13;;;8.50;99.90;;;;;;5010812;28;20135;-73
2023/12/18 08:50:09;;;;;;;38.78;20.15;;;8.50;99.90;;;;;;5024226;28;20021;-73
2023/12/18 08:52:36;;;;;;;41.70;20.33;;;8.50;99.90;;;;;;5098361;28;20076;-73
2023/12/18 08:55:02;;;;;;;43.10;20.20;;;8.50;99.90;;;;;;5027946;28;20373;-73
2023/12/18 08:57:28;;;;;;;34.47;19.63;;;8.50;99.90;;;;;;5021624;28;20424;-73
2023/12/18 08:59:55;;;;;;;41.30;20.00;;;8.50;99.90;;;;;;5030330;28;20021;-72
2023/12/18 09:02:20;;;;;;;35.33;19.23;;;8.50;99.90;;;;;;5025906;28;20041;-72
2023/12/18 09:04:46;;;;;;;46.83;19.52;;;8.50;99.90;;;;;;5057352;27;20053;-73
2023/12/18 09:07:12;;;;;;;42.05;19.52;;;8.50;99.90;;;;;;5038966;27;20019;-73
2023/12/18 09:09:39;;;;;;;39.53;19.45;;;8.50;99.90;;;;;;5026999;28;20100;-73
2023/12/18 09:12:06;;;;;;;39.10;20.77;;;8.50;99.90;;;;;;5017350;28;20030;-73
2023/12/18 09:14:32;;;;;;;41.17;20.35;;;8.60;99.90;;;;;;5021978;28;20375;-74
2023/12/18 09:16:57;;;;;;;42.45;20.80;;;8.60;99.90;;;;;;5023812;28;20072;-73
2023/12/18 09:19:23;;;;;;;41.63;20.83;;;8.60;99.90;;;;;;5088610;28;20120;-73
2023/12/18 09:21:49;;;;;;;41.55;20.83;;;8.60;99.90;;;;;;5027569;28;20026;-74
2023/12/18 09:24:14;;;;;;;41.03;20.58;;;8.60;99.90;;;;;;5020104;28;20018;-74
2023/12/18 09:26:40;;;;;;;37.40;20.08;;;8.60;99.90;;;;;;5028363;28;20505;-73
2023/12/18 09:29:05;;;;;;;38.10;19.83;;;8.60;99.90;;;;;;5020165;28;20014;-73
2023/12/18 09:31:31;;;;;;;37.42;19.45;;;8.60;99.90;;;;;;5025669;28;20018;-73
2023/12/18 09:33:57;;;;;;;38.25;18.95;;;8.70;99.90;;;;;;5026055;28;20097;-73
2023/12/18 09:36:22;;;;;;;38.17;19.42;;;8.60;99.90;;;;;;5022284;28;20500;-73
2023/12/18 09:38:48;;;;;;;37.97;18.65;;;8.70;99.90;;;;;;5025458;28;20025;-73
2023/12/18 09:41:23;;;;;;;36.80;18.83;;;8.70;99.90;;;;;;5025213;28;20478;-73
2023/12/18 09:43:55;;;;;;;34.67;18.75;;;8.80;99.90;;;;;;5010570;28;20074;-73
2023/12/18 09:46:22;;;;;;;36.22;19.40;;;8.80;99.90;;;;;;5022081;28;20527;-73
2023/12/18 09:48:55;;;;;;;35.75;19.05;;;8.80;99.90;;;;;;5027047;28;20053;-73
2023/12/18 09:51:22;;;;;;;35.67;19.02;;;8.80;99.90;;;;;;5021030;28;20026;-73
2023/12/18 09:53:49;;;;;;;36.40;19.08;;;8.80;99.90;;;;;;5023143;28;20481;-73
2023/12/18 09:56:16;;;;;;;41.70;20.05;;;8.90;99.90;;;;;;5020583;28;20081;-73
2023/12/18 09:58:45;;;;;;;34.03;18.73;;;8.90;99.90;;;;;;5024216;28;20021;-75
2023/12/18 10:01:10;;;;;;;40.40;19.70;;;9.00;99.90;;;;;;5021482;28;20068;-73
2023/12/18 10:03:36;;;;;;;34.22;18.63;;;8.90;99.90;;;;;;5020261;28;20065;-73
2023/12/18 10:06:03;;;;;;;41.00;19.13;;;9.00;99.90;;;;;;5028106;28;20091;-73
2023/12/18 10:08:28;;;;;;;40.58;18.52;;;9.00;99.90;;;;;;5028273;28;20055;-73
2023/12/18 10:10:54;;;;;;;33.88;18.13;;;9.00;99.90;;;;;;5025476;28;20435;-73
2023/12/18 10:13:19;;;;;;;40.72;18.20;;;9.00;99.90;;;;;;5025606;28;20028;-73
2023/12/18 10:15:45;;;;;;;38.67;17.92;;;9.00;99.90;;;;;;5017785;28;20103;-73
2023/12/18 10:18:11;;;;;;;34.50;18.27;;;9.00;99.90;;;;;;5038660;27;20120;-73
2023/12/18 10:20:38;;;;;;;33.97;17.98;;;9.10;99.90;;;;;;5014230;28;20105;-73
2023/12/18 10:23:05;;;;;;;34.65;18.77;;;9.10;99.90;;;;;;5025989;28;20406;-73
2023/12/18 10:25:31;;;;;;;37.50;18.67;;;9.10;99.90;;;;;;5012059;28;20026;-73
2023/12/18 10:27:57;;;;;;;38.60;17.80;;;9.10;99.90;;;;;;5023974;28;20051;-73
2023/12/18 10:30:28;;;;;;;41.95;19.05;;;9.10;99.90;;;;;;5009061;28;20088;-73
2023/12/18 10:32:54;;;;;;;33.70;19.13;;;9.10;99.90;;;;;;5022802;28;20021;-73
2023/12/18 10:35:22;;;;;;;39.42;19.77;;;9.10;99.90;;;;;;5028073;28;20018;-73
2023/12/18 10:37:54;;;;;;;36.67;19.48;;;9.00;99.90;;;;;;5088851;28;20455;-73
2023/12/18 10:40:23;;;;;;;37.75;19.88;;;9.00;99.90;;;;;;5023668;28;20120;-73
2023/12/18 10:43:21;;;;;;;38.72;20.08;;;9.00;99.90;;;;;;5009833;28;20328;-73
2023/12/18 10:45:48;;;;;;;45.47;20.20;;;9.10;99.90;;;;;;5024582;28;20389;-73
2023/12/18 10:48:16;;;;;;;37.35;19.75;;;9.00;99.90;;;;;;5027650;28;20075;-73
2023/12/18 10:50:44;;;;;;;41.42;19.63;;;9.10;99.90;;;;;;5024918;28;20021;-73
2023/12/18 10:53:11;;;;;;;40.03;19.45;;;9.10;99.90;;;;;;5026884;28;20036;-73
2023/12/18 10:55:39;;;;;;;37.45;19.35;;;9.10;99.90;;;;;;5027693;28;20039;-73
2023/12/18 10:58:06;;;;;;;39.28;19.35;;;9.10;99.90;;;;;;5018629;28;20022;-73
2023/12/18 11:00:32;;;;;;;37.40;20.23;;;9.20;99.90;;;;;;5019830;28;20022;-73
2023/12/18 11:02:59;;;;;;;37.67;19.95;;;9.20;99.90;;;;;;5022348;28;20101;-74
2023/12/18 11:05:25;;;;;;;36.67;18.95;;;9.20;99.90;;;;;;5024248;28;20028;-74
2023/12/18 11:07:51;;;;;;;33.63;18.88;;;9.20;99.90;;;;;;5027605;28;20018;-74
2023/12/18 11:10:18;;;;;;;36.90;19.45;;;9.20;99.90;;;;;;5027816;28;20025;-74
2023/12/18 11:12:45;;;;;;;38.88;18.45;;;9.30;99.90;;;;;;5024818;28;20033;-74
2023/12/18 11:15:29;;;;;;;36.80;19.52;;;9.30;99.90;;;;;;5025967;28;20132;-74
2023/12/18 11:18:19;;;;;;;32.83;18.27;;;9.30;99.90;;;;;;5026834;28;20041;-74
2023/12/18 11:20:45;;;;;;;43.17;19.27;;;9.30;99.90;;;;;;5023380;28;20026;-74
2023/12/18 11:23:11;;;;;;;42.22;20.85;;;9.20;99.90;;;;;;5025283;28;20107;-74
2023/12/18 11:25:45;;;;;;;42.75;19.75;;;9.20;99.90;;;;;;5009931;28;20025;-74
2023/12/18 11:28:11;;;;;;;31.13;15.23;;;9.20;99.90;;;;;;5012468;28;20555;-74
2023/12/18 11:30:42;;;;;;;42.38;20.38;;;9.20;99.90;;;;;;5026835;28;20022;-74
2023/12/18 11:33:13;;;;;;;37.85;19.45;;;9.20;99.90;;;;;;5026718;28;20038;-74
2023/12/18 11:35:44;;;;;;;40.08;20.48;;;9.20;99.90;;;;;;5024014;28;20030;-74
2023/12/18 11:38:14;;;;;;;37.72;19.45;;;9.30;99.90;;;;;;5018631;28;20030;-74
2023/12/18 11:40:42;;;;;;;38.20;20.15;;;9.30;99.90;;;;;;5026719;28;20025;-75
2023/12/18 11:43:09;;;;;;;40.58;20.42;;;9.30;99.90;;;;;;5015208;28;20296;-74
2023/12/18 11:45:44;;;;;;;39.38;20.27;;;9.30;99.90;;;;;;5019746;28;20371;-74
2023/12/18 11:48:16;;;;;;;45.92;20.65;;;9.30;99.90;;;;;;5018142;28;20036;-74
2023/12/18 11:50:42;;;;;;;36.28;19.83;;;9.30;99.90;;;;;;5027790;28;20416;-74
2023/12/18 11:53:18;;;;;;;38.03;20.50;;;9.30;99.90;;;;;;5019722;28;20506;-75
2023/12/18 11:55:47;;;;;;;36.72;18.60;;;9.20;99.90;;;;;;5008836;28;20042;-75
2023/12/18 11:58:14;;;;;;;43.22;19.67;;;9.30;99.90;;;;;;5021713;28;20079;-75
2023/12/18 12:00:40;;;;;;;34.72;19.75;;;9.20;99.90;;;;;;5027016;28;20029;-74
2023/12/18 12:03:06;;;;;;;37.70;21.08;;;9.20;99.90;;;;;;5025280;28;20102;-74
2023/12/18 12:05:33;;;;;;;40.17;20.83;;;9.20;99.90;;;;;;5015824;28;20407;-74
2023/12/18 12:08:00;;;;;;;46.15;19.88;;;9.20;99.90;;;;;;5026428;28;20089;-73
2023/12/18 12:10:26;;;;;;;42.83;20.23;;;9.20;99.90;;;;;;5025728;28;20018;-74
2023/12/18 12:13:01;;;;;;;40.03;19.75;;;9.30;99.90;;;;;;5023002;28;20036;-74
2023/12/18 12:15:28;;;;;;;38.53;20.50;;;9.30;99.90;;;;;;5027121;28;20106;-74
2023/12/18 12:18:11;;;;;;;38.33;20.15;;;9.30;99.90;;;;;;5026356;28;20026;-74
2023/12/18 12:20:37;;;;;;;41.88;20.55;;;9.30;99.90;;;;;;5038586;27;20378;-74
2023/12/18 12:23:02;;;;;;;36.90;19.38;;;9.30;99.90;;;;;;5023366;28;20489;-74
2023/12/18 12:25:28;;;;;;;43.10;20.67;;;9.30;99.90;;;;;;5026518;28;20045;-73
2023/12/18 12:27:54;;;;;;;39.42;19.42;;;9.30;99.90;;;;;;5022211;28;20381;-73
2023/12/18 12:30:21;;;;;;;34.65;19.95;;;9.30;99.90;;;;;;5026666;28;20026;-74
2023/12/18 12:32:47;;;;;;;43.38;19.10;;;9.30;99.90;;;;;;5020547;28;20033;-73